sensor_id;sensor_type;location;lat;lon;timestamp;P1;durP1;ratioP1;P2;durP2;ratioP2
28960;SDS011;16068;42.896;20.868;2023-01-08T00:01:07;59.63;;;25.02;;
28960;SDS011;16068;42.896;20.868;2023-01-08T00:03:54;54.92;;;24.45;;
28960;SDS011;16068;42.896;20.868;2023-01-08T00:06:40;54.05;;;24.90;;
28960;SDS011;16068;42.896;20.868;2023-01-08T00:09:26;51.65;;;24.73;;
28960;SDS011;16068;42.896;20.868;2023-01-08T00:12:11;49.70;;;23.33;;
28960;SDS011;16068;42.896;20.868;2023-01-08T00:14:57;51.50;;;23.35;;
28960;SDS011;16068;42.896;20.868;2023-01-08T00:17:43;46.55;;;23.15;;
28960;SDS011;16068;42.896;20.868;2023-01-08T00:20:29;45.03;;;23.58;;
28960;SDS011;16068;42.896;20.868;2023-01-08T00:23:15;50.20;;;23.75;;
28960;SDS011;16068;42.896;20.868;2023-01-08T00:26:03;42.45;;;21.95;;
28960;SDS011;16068;42.896;20.868;2023-01-08T00:28:50;41.45;;;22.45;;
28960;SDS011;16068;42.896;20.868;2023-01-08T00:31:36;43.55;;;21.42;;
28960;SDS011;16068;42.896;20.868;2023-01-08T00:34:22;45.25;;;22.63;;
28960;SDS011;16068;42.896;20.868;2023-01-08T00:37:07;53.78;;;21.90;;
28960;SDS011;16068;42.896;20.868;2023-01-08T00:39:53;47.50;;;21.77;;
28960;SDS011;16068;42.896;20.868;2023-01-08T00:42:39;42.72;;;21.13;;
28960;SDS011;16068;42.896;20.868;2023-01-08T00:45:26;48.65;;;20.92;;
28960;SDS011;16068;42.896;20.868;2023-01-08T00:48:12;45.53;;;21.85;;
28960;SDS011;16068;42.896;20.868;2023-01-08T00:51:00;52.67;;;23.23;;
28960;SDS011;16068;42.896;20.868;2023-01-08T00:53:46;50.75;;;22.15;;
28960;SDS011;16068;42.896;20.868;2023-01-08T00:56:32;59.50;;;22.77;;
28960;SDS011;16068;42.896;20.868;2023-01-08T00:59:17;64.05;;;22.30;;
28960;SDS011;16068;42.896;20.868;2023-01-08T01:02:03;50.80;;;22.23;;
28960;SDS011;16068;42.896;20.868;2023-01-08T01:04:49;42.63;;;19.63;;
28960;SDS011;16068;42.896;20.868;2023-01-08T01:07:35;46.45;;;21.00;;
28960;SDS011;16068;42.896;20.868;2023-01-08T01:10:22;47.38;;;20.35;;
28960;SDS011;16068;42.896;20.868;2023-01-08T01:13:08;44.58;;;19.73;;
28960;SDS011;16068;42.896;20.868;2023-01-08T01:15:55;37.05;;;19.42;;
28960;SDS011;16068;42.896;20.868;2023-01-08T01:18:44;46.63;;;22.02;;
28960;SDS011;16068;42.896;20.868;2023-01-08T01:21:31;41.38;;;20.90;;
28960;SDS011;16068;42.896;20.868;2023-01-08T01:24:17;47.00;;;22.05;;
28960;SDS011;16068;42.896;20.868;2023-01-08T01:27:03;42.50;;;21.63;;
28960;SDS011;16068;42.896;20.868;2023-01-08T01:29:48;45.70;;;23.20;;
28960;SDS011;16068;42.896;20.868;2023-01-08T01:32:34;49.45;;;23.75;;
28960;SDS011;16068;42.896;20.868;2023-01-08T01:35:20;42.22;;;21.48;;
28960;SDS011;16068;42.896;20.868;2023-01-08T01:38:06;43.72;;;21.20;;
28960;SDS011;16068;42.896;20.868;2023-01-08T01:40:51;40.97;;;21.08;;
28960;SDS011;16068;42.896;20.868;2023-01-08T01:43:38;43.20;;;21.33;;
28960;SDS011;16068;42.896;20.868;2023-01-08T01:46:35;41.85;;;18.70;;
28960;SDS011;16068;42.896;20.868;2023-01-08T01:49:22;34.85;;;16.90;;
28960;SDS011;16068;42.896;20.868;2023-01-08T01:52:08;33.88;;;16.88;;
28960;SDS011;16068;42.896;20.868;2023-01-08T01:54:56;41.28;;;18.42;;
28960;SDS011;16068;42.896;20.868;2023-01-08T01:57:46;39.97;;;19.20;;
28960;SDS011;16068;42.896;20.868;2023-01-08T02:00:36;38.00;;;19.33;;
28960;SDS011;16068;42.896;20.868;2023-01-08T02:03:24;41.20;;;19.15;;
28960;SDS011;16068;42.896;20.868;2023-01-08T02:12:22;43.75;;;18.98;;
28960;SDS011;16068;42.896;20.868;2023-01-08T02:21:05;36.67;;;18.15;;
28960;SDS011;16068;42.896;20.868;2023-01-08T02:24:08;40.63;;;16.60;;
28960;SDS011;16068;42.896;20.868;2023-01-08T02:26:59;33.88;;;16.63;;
28960;SDS011;16068;42.896;20.868;2023-01-08T02:29:45;37.85;;;18.17;;
28960;SDS011;16068;42.896;20.868;2023-01-08T02:32:33;38.92;;;18.67;;
28960;SDS011;16068;42.896;20.868;2023-01-08T02:35:21;37.00;;;19.02;;
28960;SDS011;16068;42.896;20.868;2023-01-08T02:38:08;38.92;;;18.50;;
28960;SDS011;16068;42.896;20.868;2023-01-08T02:41:06;33.35;;;15.90;;
28960;SDS011;16068;42.896;20.868;2023-01-08T02:43:54;31.40;;;15.63;;
28960;SDS011;16068;42.896;20.868;2023-01-08T02:46:41;35.78;;;16.35;;
28960;SDS011;16068;42.896;20.868;2023-01-08T02:49:29;38.05;;;16.75;;
28960;SDS011;16068;42.896;20.868;2023-01-08T02:52:17;28.38;;;14.00;;
28960;SDS011;16068;42.896;20.868;2023-01-08T02:55:03;31.98;;;15.30;;
28960;SDS011;16068;42.896;20.868;2023-01-08T02:57:50;30.23;;;14.77;;
28960;SDS011;16068;42.896;20.868;2023-01-08T03:00:36;33.95;;;14.80;;
28960;SDS011;16068;42.896;20.868;2023-01-08T03:03:23;29.15;;;14.70;;
28960;SDS011;16068;42.896;20.868;2023-01-08T03:06:11;32.58;;;14.52;;
28960;SDS011;16068;42.896;20.868;2023-01-08T03:08:58;32.25;;;14.98;;
28960;SDS011;16068;42.896;20.868;2023-01-08T03:11:56;30.10;;;14.48;;
28960;SDS011;16068;42.896;20.868;2023-01-08T03:14:49;31.88;;;14.80;;
28960;SDS011;16068;42.896;20.868;2023-01-08T03:17:49;29.77;;;14.10;;
28960;SDS011;16068;42.896;20.868;2023-01-08T03:20:38;28.38;;;14.82;;
28960;SDS011;16068;42.896;20.868;2023-01-08T03:23:24;30.83;;;14.27;;
28960;SDS011;16068;42.896;20.868;2023-01-08T03:26:12;28.30;;;14.93;;
28960;SDS011;16068;42.896;20.868;2023-01-08T03:29:00;30.80;;;14.63;;
28960;SDS011;16068;42.896;20.868;2023-01-08T03:31:47;31.85;;;14.75;;
28960;SDS011;16068;42.896;20.868;2023-01-08T03:34:35;33.15;;;15.50;;
28960;SDS011;16068;42.896;20.868;2023-01-08T03:37:24;28.70;;;15.05;;
28960;SDS011;16068;42.896;20.868;2023-01-08T03:40:17;35.47;;;15.50;;
28960;SDS011;16068;42.896;20.868;2023-01-08T03:43:06;33.15;;;15.50;;
28960;SDS011;16068;42.896;20.868;2023-01-08T03:45:53;33.60;;;16.85;;
28960;SDS011;16068;42.896;20.868;2023-01-08T03:48:41;32.90;;;15.70;;
28960;SDS011;16068;42.896;20.868;2023-01-08T03:51:28;31.40;;;14.73;;
28960;SDS011;16068;42.896;20.868;2023-01-08T03:54:31;27.98;;;15.15;;
28960;SDS011;16068;42.896;20.868;2023-01-08T03:57:18;33.08;;;14.45;;
28960;SDS011;16068;42.896;20.868;2023-01-08T04:00:04;28.02;;;14.18;;
28960;SDS011;16068;42.896;20.868;2023-01-08T04:02:51;31.85;;;14.90;;
28960;SDS011;16068;42.896;20.868;2023-01-08T04:05:37;32.53;;;15.48;;
28960;SDS011;16068;42.896;20.868;2023-01-08T04:08:22;32.85;;;16.77;;
28960;SDS011;16068;42.896;20.868;2023-01-08T04:11:08;27.42;;;15.43;;
28960;SDS011;16068;42.896;20.868;2023-01-08T04:13:54;30.13;;;15.48;;
28960;SDS011;16068;42.896;20.868;2023-01-08T04:16:40;32.17;;;14.45;;
28960;SDS011;16068;42.896;20.868;2023-01-08T04:19:26;28.02;;;14.52;;
28960;SDS011;16068;42.896;20.868;2023-01-08T04:22:11;29.00;;;14.05;;
28960;SDS011;16068;42.896;20.868;2023-01-08T04:24:57;27.15;;;13.88;;
28960;SDS011;16068;42.896;20.868;2023-01-08T04:27:43;33.08;;;15.02;;
28960;SDS011;16068;42.896;20.868;2023-01-08T04:30:29;28.10;;;13.45;;
28960;SDS011;16068;42.896;20.868;2023-01-08T04:33:21;31.85;;;13.95;;
28960;SDS011;16068;42.896;20.868;2023-01-08T04:36:07;28.77;;;13.98;;
28960;SDS011;16068;42.896;20.868;2023-01-08T04:38:55;30.05;;;13.73;;
28960;SDS011;16068;42.896;20.868;2023-01-08T04:41:47;29.45;;;13.93;;
28960;SDS011;16068;42.896;20.868;2023-01-08T04:44:34;29.80;;;13.73;;
28960;SDS011;16068;42.896;20.868;2023-01-08T04:47:22;28.67;;;13.77;;
28960;SDS011;16068;42.896;20.868;2023-01-08T04:50:20;32.38;;;14.63;;
28960;SDS011;16068;42.896;20.868;2023-01-08T04:53:05;30.73;;;15.13;;
28960;SDS011;16068;42.896;20.868;2023-01-08T04:55:51;25.77;;;12.77;;
28960;SDS011;16068;42.896;20.868;2023-01-08T04:58:37;25.60;;;12.50;;
28960;SDS011;16068;42.896;20.868;2023-01-08T05:01:25;24.42;;;10.88;;
28960;SDS011;16068;42.896;20.868;2023-01-08T05:04:11;25.23;;;11.80;;
28960;SDS011;16068;42.896;20.868;2023-01-08T05:06:57;26.00;;;11.82;;
28960;SDS011;16068;42.896;20.868;2023-01-08T05:09:43;26.50;;;11.93;;
28960;SDS011;16068;42.896;20.868;2023-01-08T05:12:29;25.98;;;11.80;;
28960;SDS011;16068;42.896;20.868;2023-01-08T05:15:14;25.35;;;11.93;;
28960;SDS011;16068;42.896;20.868;2023-01-08T05:18:01;25.40;;;11.82;;
28960;SDS011;16068;42.896;20.868;2023-01-08T05:20:48;26.67;;;12.52;;
28960;SDS011;16068;42.896;20.868;2023-01-08T05:23:34;25.23;;;12.50;;
28960;SDS011;16068;42.896;20.868;2023-01-08T05:26:20;23.65;;;12.38;;
28960;SDS011;16068;42.896;20.868;2023-01-08T05:29:08;24.88;;;12.35;;
28960;SDS011;16068;42.896;20.868;2023-01-08T05:32:02;23.27;;;12.52;;
28960;SDS011;16068;42.896;20.868;2023-01-08T05:34:48;26.10;;;12.23;;
28960;SDS011;16068;42.896;20.868;2023-01-08T05:37:34;27.13;;;12.68;;
28960;SDS011;16068;42.896;20.868;2023-01-08T05:40:21;30.33;;;12.55;;
28960;SDS011;16068;42.896;20.868;2023-01-08T05:43:07;30.48;;;13.45;;
28960;SDS011;16068;42.896;20.868;2023-01-08T05:45:53;34.88;;;14.65;;
28960;SDS011;16068;42.896;20.868;2023-01-08T05:48:45;35.10;;;15.13;;
28960;SDS011;16068;42.896;20.868;2023-01-08T05:51:31;32.58;;;13.63;;
28960;SDS011;16068;42.896;20.868;2023-01-08T05:54:17;30.15;;;14.43;;
28960;SDS011;16068;42.896;20.868;2023-01-08T05:57:02;39.20;;;15.15;;
28960;SDS011;16068;42.896;20.868;2023-01-08T06:00:00;30.27;;;14.85;;
28960;SDS011;16068;42.896;20.868;2023-01-08T06:03:02;37.88;;;16.00;;
28960;SDS011;16068;42.896;20.868;2023-01-08T06:05:49;37.72;;;15.68;;
28960;SDS011;16068;42.896;20.868;2023-01-08T06:08:34;33.20;;;15.95;;
28960;SDS011;16068;42.896;20.868;2023-01-08T06:11:20;36.45;;;14.23;;
28960;SDS011;16068;42.896;20.868;2023-01-08T06:14:06;34.40;;;14.45;;
28960;SDS011;16068;42.896;20.868;2023-01-08T06:16:52;54.88;;;14.50;;
28960;SDS011;16068;42.896;20.868;2023-01-08T06:19:37;36.22;;;13.90;;
28960;SDS011;16068;42.896;20.868;2023-01-08T06:22:24;31.27;;;14.82;;
28960;SDS011;16068;42.896;20.868;2023-01-08T06:25:09;28.33;;;14.02;;
28960;SDS011;16068;42.896;20.868;2023-01-08T06:27:55;38.00;;;15.18;;
28960;SDS011;16068;42.896;20.868;2023-01-08T06:34:00;32.22;;;13.90;;
28960;SDS011;16068;42.896;20.868;2023-01-08T06:36:45;34.70;;;13.80;;
28960;SDS011;16068;42.896;20.868;2023-01-08T06:39:31;38.33;;;15.20;;
28960;SDS011;16068;42.896;20.868;2023-01-08T06:42:17;33.33;;;14.48;;
28960;SDS011;16068;42.896;20.868;2023-01-08T06:45:03;32.53;;;14.75;;
28960;SDS011;16068;42.896;20.868;2023-01-08T06:47:49;34.53;;;13.57;;
28960;SDS011;16068;42.896;20.868;2023-01-08T06:50:35;35.20;;;14.02;;
28960;SDS011;16068;42.896;20.868;2023-01-08T06:53:20;29.05;;;14.60;;
28960;SDS011;16068;42.896;20.868;2023-01-08T06:56:06;89.28;;;39.45;;
28960;SDS011;16068;42.896;20.868;2023-01-08T06:58:55;122.88;;;49.05;;
28960;SDS011;16068;42.896;20.868;2023-01-08T07:01:40;73.80;;;31.25;;
28960;SDS011;16068;42.896;20.868;2023-01-08T07:04:27;48.45;;;20.85;;
28960;SDS011;16068;42.896;20.868;2023-01-08T07:07:13;40.42;;;18.63;;
28960;SDS011;16068;42.896;20.868;2023-01-08T07:09:59;165.90;;;73.93;;
28960;SDS011;16068;42.896;20.868;2023-01-08T07:12:44;71.40;;;33.80;;
28960;SDS011;16068;42.896;20.868;2023-01-08T07:15:30;53.72;;;20.45;;
28960;SDS011;16068;42.896;20.868;2023-01-08T07:18:16;38.30;;;18.60;;
28960;SDS011;16068;42.896;20.868;2023-01-08T07:21:02;42.92;;;18.55;;
28960;SDS011;16068;42.896;20.868;2023-01-08T07:23:48;38.42;;;16.92;;
28960;SDS011;16068;42.896;20.868;2023-01-08T07:26:35;47.63;;;17.30;;
28960;SDS011;16068;42.896;20.868;2023-01-08T07:29:20;36.45;;;16.83;;
28960;SDS011;16068;42.896;20.868;2023-01-08T07:32:06;47.50;;;23.05;;
28960;SDS011;16068;42.896;20.868;2023-01-08T07:34:52;64.88;;;30.27;;
28960;SDS011;16068;42.896;20.868;2023-01-08T07:37:40;81.03;;;36.20;;
28960;SDS011;16068;42.896;20.868;2023-01-08T07:40:26;83.63;;;39.47;;
28960;SDS011;16068;42.896;20.868;2023-01-08T07:43:12;84.20;;;39.72;;
28960;SDS011;16068;42.896;20.868;2023-01-08T07:46:00;78.35;;;37.97;;
28960;SDS011;16068;42.896;20.868;2023-01-08T07:48:47;72.65;;;37.42;;
28960;SDS011;16068;42.896;20.868;2023-01-08T07:51:33;87.63;;;39.97;;
28960;SDS011;16068;42.896;20.868;2023-01-08T07:54:20;70.82;;;35.05;;
28960;SDS011;16068;42.896;20.868;2023-01-08T07:57:06;84.20;;;39.97;;
28960;SDS011;16068;42.896;20.868;2023-01-08T07:59:52;76.57;;;37.63;;
28960;SDS011;16068;42.896;20.868;2023-01-08T08:02:37;77.32;;;39.22;;
28960;SDS011;16068;42.896;20.868;2023-01-08T08:05:23;74.18;;;38.72;;
28960;SDS011;16068;42.896;20.868;2023-01-08T08:08:09;87.15;;;40.75;;
28960;SDS011;16068;42.896;20.868;2023-01-08T08:10:56;80.00;;;38.53;;
28960;SDS011;16068;42.896;20.868;2023-01-08T08:13:42;78.05;;;38.95;;
28960;SDS011;16068;42.896;20.868;2023-01-08T08:16:29;87.43;;;40.40;;
28960;SDS011;16068;42.896;20.868;2023-01-08T08:19:15;78.05;;;39.08;;
28960;SDS011;16068;42.896;20.868;2023-01-08T08:22:01;74.63;;;38.17;;
28960;SDS011;16068;42.896;20.868;2023-01-08T08:24:46;78.18;;;37.88;;
28960;SDS011;16068;42.896;20.868;2023-01-08T08:27:32;73.32;;;35.67;;
28960;SDS011;16068;42.896;20.868;2023-01-08T08:30:19;70.78;;;34.50;;
28960;SDS011;16068;42.896;20.868;2023-01-08T08:33:05;75.53;;;38.33;;
28960;SDS011;16068;42.896;20.868;2023-01-08T08:35:52;75.57;;;36.25;;
28960;SDS011;16068;42.896;20.868;2023-01-08T08:38:37;77.97;;;39.05;;
28960;SDS011;16068;42.896;20.868;2023-01-08T08:41:24;69.47;;;38.25;;
28960;SDS011;16068;42.896;20.868;2023-01-08T08:44:10;79.22;;;41.25;;
28960;SDS011;16068;42.896;20.868;2023-01-08T08:46:56;77.70;;;41.80;;
28960;SDS011;16068;42.896;20.868;2023-01-08T08:49:42;81.28;;;40.85;;
28960;SDS011;16068;42.896;20.868;2023-01-08T08:52:28;100.68;;;42.95;;
28960;SDS011;16068;42.896;20.868;2023-01-08T08:55:16;79.60;;;44.03;;
28960;SDS011;16068;42.896;20.868;2023-01-08T08:58:03;88.00;;;44.80;;
28960;SDS011;16068;42.896;20.868;2023-01-08T09:00:51;78.43;;;41.33;;
28960;SDS011;16068;42.896;20.868;2023-01-08T09:03:37;84.30;;;40.65;;
28960;SDS011;16068;42.896;20.868;2023-01-08T09:06:23;72.13;;;36.38;;
28960;SDS011;16068;42.896;20.868;2023-01-08T09:09:12;79.13;;;38.97;;
28960;SDS011;16068;42.896;20.868;2023-01-08T09:11:59;86.50;;;42.42;;
28960;SDS011;16068;42.896;20.868;2023-01-08T09:14:45;85.05;;;45.60;;
28960;SDS011;16068;42.896;20.868;2023-01-08T09:17:34;88.05;;;46.08;;
28960;SDS011;16068;42.896;20.868;2023-01-08T09:20:22;90.93;;;46.90;;
28960;SDS011;16068;42.896;20.868;2023-01-08T09:23:09;87.20;;;44.03;;
28960;SDS011;16068;42.896;20.868;2023-01-08T09:25:59;73.18;;;39.90;;
28960;SDS011;16068;42.896;20.868;2023-01-08T09:28:46;71.18;;;36.10;;
28960;SDS011;16068;42.896;20.868;2023-01-08T10:05:36;62.25;;;32.40;;
28960;SDS011;16068;42.896;20.868;2023-01-08T10:08:22;55.75;;;30.15;;
28960;SDS011;16068;42.896;20.868;2023-01-08T10:11:09;64.13;;;32.45;;
28960;SDS011;16068;42.896;20.868;2023-01-08T10:13:56;64.13;;;34.28;;
28960;SDS011;16068;42.896;20.868;2023-01-08T10:16:42;54.97;;;30.92;;
28960;SDS011;16068;42.896;20.868;2023-01-08T10:19:28;45.20;;;25.23;;
28960;SDS011;16068;42.896;20.868;2023-01-08T10:22:14;44.03;;;24.27;;
28960;SDS011;16068;42.896;20.868;2023-01-08T10:25:04;42.85;;;24.30;;
28960;SDS011;16068;42.896;20.868;2023-01-08T10:27:53;49.78;;;28.08;;
28960;SDS011;16068;42.896;20.868;2023-01-08T10:31:09;57.80;;;29.63;;
28960;SDS011;16068;42.896;20.868;2023-01-08T10:34:07;53.20;;;31.05;;
28960;SDS011;16068;42.896;20.868;2023-01-08T10:37:40;55.63;;;30.58;;
28960;SDS011;16068;42.896;20.868;2023-01-08T10:43:22;58.58;;;33.55;;
28960;SDS011;16068;42.896;20.868;2023-01-08T10:46:35;58.17;;;34.00;;
28960;SDS011;16068;42.896;20.868;2023-01-08T10:49:33;70.03;;;36.92;;
28960;SDS011;16068;42.896;20.868;2023-01-08T10:58:41;67.20;;;36.00;;
28960;SDS011;16068;42.896;20.868;2023-01-08T11:04:55;61.78;;;34.00;;
28960;SDS011;16068;42.896;20.868;2023-01-08T11:07:53;65.95;;;35.42;;
28960;SDS011;16068;42.896;20.868;2023-01-08T11:10:41;54.03;;;30.75;;
28960;SDS011;16068;42.896;20.868;2023-01-08T11:13:27;52.80;;;29.95;;
28960;SDS011;16068;42.896;20.868;2023-01-08T11:16:14;54.13;;;29.52;;
28960;SDS011;16068;42.896;20.868;2023-01-08T11:18:59;45.90;;;28.67;;
28960;SDS011;16068;42.896;20.868;2023-01-08T11:21:56;52.13;;;30.30;;
28960;SDS011;16068;42.896;20.868;2023-01-08T11:24:43;49.13;;;29.55;;
28960;SDS011;16068;42.896;20.868;2023-01-08T11:27:35;50.72;;;30.08;;
28960;SDS011;16068;42.896;20.868;2023-01-08T11:30:24;58.15;;;30.83;;
28960;SDS011;16068;42.896;20.868;2023-01-08T11:33:12;81.90;;;44.10;;
28960;SDS011;16068;42.896;20.868;2023-01-08T11:36:08;72.88;;;43.10;;
28960;SDS011;16068;42.896;20.868;2023-01-08T11:39:04;75.47;;;41.75;;
28960;SDS011;16068;42.896;20.868;2023-01-08T11:54:14;81.65;;;46.95;;
28960;SDS011;16068;42.896;20.868;2023-01-08T12:00:52;68.85;;;39.40;;
28960;SDS011;16068;42.896;20.868;2023-01-08T12:03:48;60.25;;;36.53;;
28960;SDS011;16068;42.896;20.868;2023-01-08T12:10:16;57.90;;;34.90;;
28960;SDS011;16068;42.896;20.868;2023-01-08T12:20:20;58.15;;;36.53;;
28960;SDS011;16068;42.896;20.868;2023-01-08T12:27:00;63.95;;;35.22;;
28960;SDS011;16068;42.896;20.868;2023-01-08T12:33:10;48.65;;;31.45;;
28960;SDS011;16068;42.896;20.868;2023-01-08T12:36:07;54.13;;;31.90;;
28960;SDS011;16068;42.896;20.868;2023-01-08T12:38:56;51.33;;;31.07;;
28960;SDS011;16068;42.896;20.868;2023-01-08T12:41:45;57.90;;;33.42;;
28960;SDS011;16068;42.896;20.868;2023-01-08T12:44:32;55.25;;;32.90;;
28960;SDS011;16068;42.896;20.868;2023-01-08T12:47:21;58.42;;;30.60;;
28960;SDS011;16068;42.896;20.868;2023-01-08T12:53:23;50.70;;;28.85;;
28960;SDS011;16068;42.896;20.868;2023-01-08T12:59:29;54.33;;;28.38;;
28960;SDS011;16068;42.896;20.868;2023-01-08T13:02:43;44.97;;;28.45;;
28960;SDS011;16068;42.896;20.868;2023-01-08T13:05:34;46.25;;;27.73;;
28960;SDS011;16068;42.896;20.868;2023-01-08T13:11:10;52.97;;;31.27;;
28960;SDS011;16068;42.896;20.868;2023-01-08T13:13:58;58.53;;;32.80;;
28960;SDS011;16068;42.896;20.868;2023-01-08T13:16:45;49.80;;;29.55;;
28960;SDS011;16068;42.896;20.868;2023-01-08T13:19:42;54.70;;;31.90;;
28960;SDS011;16068;42.896;20.868;2023-01-08T13:22:31;61.97;;;33.70;;
28960;SDS011;16068;42.896;20.868;2023-01-08T13:28:16;60.67;;;32.90;;
28960;SDS011;16068;42.896;20.868;2023-01-08T13:31:37;64.63;;;32.70;;
28960;SDS011;16068;42.896;20.868;2023-01-08T13:34:35;59.23;;;32.60;;
28960;SDS011;16068;42.896;20.868;2023-01-08T13:37:26;64.65;;;33.17;;
28960;SDS011;16068;42.896;20.868;2023-01-08T13:43:36;71.22;;;34.92;;
28960;SDS011;16068;42.896;20.868;2023-01-08T13:46:23;67.95;;;35.75;;
28960;SDS011;16068;42.896;20.868;2023-01-08T13:49:19;74.32;;;36.80;;
28960;SDS011;16068;42.896;20.868;2023-01-08T13:55:28;65.30;;;32.75;;
28960;SDS011;16068;42.896;20.868;2023-01-08T13:58:20;61.17;;;31.85;;
28960;SDS011;16068;42.896;20.868;2023-01-08T14:01:11;69.63;;;33.70;;
28960;SDS011;16068;42.896;20.868;2023-01-08T14:03:57;61.40;;;31.17;;
28960;SDS011;16068;42.896;20.868;2023-01-08T14:06:43;60.95;;;34.13;;
28960;SDS011;16068;42.896;20.868;2023-01-08T14:09:29;72.10;;;36.72;;
28960;SDS011;16068;42.896;20.868;2023-01-08T14:12:19;68.97;;;35.35;;
28960;SDS011;16068;42.896;20.868;2023-01-08T14:15:21;57.92;;;30.85;;
28960;SDS011;16068;42.896;20.868;2023-01-08T14:18:11;67.28;;;29.58;;
28960;SDS011;16068;42.896;20.868;2023-01-08T14:20:58;55.60;;;29.90;;
28960;SDS011;16068;42.896;20.868;2023-01-08T14:23:44;59.30;;;29.25;;
28960;SDS011;16068;42.896;20.868;2023-01-08T14:26:32;59.15;;;30.80;;
28960;SDS011;16068;42.896;20.868;2023-01-08T14:29:24;65.82;;;31.25;;
28960;SDS011;16068;42.896;20.868;2023-01-08T14:32:24;58.28;;;29.02;;
28960;SDS011;16068;42.896;20.868;2023-01-08T14:35:14;53.63;;;30.27;;
28960;SDS011;16068;42.896;20.868;2023-01-08T14:38:02;62.17;;;34.60;;
28960;SDS011;16068;42.896;20.868;2023-01-08T14:40:56;59.42;;;31.42;;
28960;SDS011;16068;42.896;20.868;2023-01-08T14:43:55;60.45;;;32.08;;
28960;SDS011;16068;42.896;20.868;2023-01-08T14:46:41;73.45;;;35.58;;
28960;SDS011;16068;42.896;20.868;2023-01-08T14:49:32;67.60;;;32.35;;
28960;SDS011;16068;42.896;20.868;2023-01-08T14:52:18;67.15;;;35.15;;
28960;SDS011;16068;42.896;20.868;2023-01-08T14:55:05;70.00;;;34.10;;
28960;SDS011;16068;42.896;20.868;2023-01-08T14:57:52;73.55;;;36.70;;
28960;SDS011;16068;42.896;20.868;2023-01-08T15:00:49;88.25;;;41.30;;
28960;SDS011;16068;42.896;20.868;2023-01-08T15:03:38;93.03;;;43.17;;
28960;SDS011;16068;42.896;20.868;2023-01-08T15:06:28;99.85;;;47.00;;
28960;SDS011;16068;42.896;20.868;2023-01-08T15:09:32;95.53;;;44.60;;
28960;SDS011;16068;42.896;20.868;2023-01-08T15:12:23;106.93;;;47.40;;
28960;SDS011;16068;42.896;20.868;2023-01-08T15:15:21;96.75;;;47.83;;
28960;SDS011;16068;42.896;20.868;2023-01-08T15:18:08;94.13;;;42.77;;
28960;SDS011;16068;42.896;20.868;2023-01-08T15:20:56;102.95;;;46.30;;
28960;SDS011;16068;42.896;20.868;2023-01-08T15:23:44;101.05;;;47.53;;
28960;SDS011;16068;42.896;20.868;2023-01-08T15:26:41;97.88;;;46.65;;
28960;SDS011;16068;42.896;20.868;2023-01-08T15:29:32;98.22;;;48.67;;
28960;SDS011;16068;42.896;20.868;2023-01-08T15:32:20;108.03;;;48.25;;
28960;SDS011;16068;42.896;20.868;2023-01-08T15:35:13;109.82;;;51.80;;
28960;SDS011;16068;42.896;20.868;2023-01-08T15:40:46;98.03;;;48.25;;
28960;SDS011;16068;42.896;20.868;2023-01-08T15:43:33;101.72;;;46.25;;
28960;SDS011;16068;42.896;20.868;2023-01-08T15:46:18;104.82;;;49.35;;
28960;SDS011;16068;42.896;20.868;2023-01-08T15:49:04;88.63;;;49.38;;
28960;SDS011;16068;42.896;20.868;2023-01-08T15:51:50;94.45;;;49.58;;
28960;SDS011;16068;42.896;20.868;2023-01-08T15:54:36;97.95;;;51.85;;
28960;SDS011;16068;42.896;20.868;2023-01-08T15:57:22;110.43;;;54.38;;
28960;SDS011;16068;42.896;20.868;2023-01-08T16:00:10;112.50;;;54.92;;
28960;SDS011;16068;42.896;20.868;2023-01-08T16:02:57;92.90;;;50.50;;
28960;SDS011;16068;42.896;20.868;2023-01-08T16:05:44;108.85;;;53.20;;
28960;SDS011;16068;42.896;20.868;2023-01-08T16:08:30;105.57;;;52.83;;
28960;SDS011;16068;42.896;20.868;2023-01-08T16:11:16;99.35;;;51.05;;
28960;SDS011;16068;42.896;20.868;2023-01-08T16:14:02;128.15;;;57.13;;
28960;SDS011;16068;42.896;20.868;2023-01-08T16:16:48;139.18;;;64.45;;
28960;SDS011;16068;42.896;20.868;2023-01-08T16:19:34;119.25;;;57.70;;
28960;SDS011;16068;42.896;20.868;2023-01-08T16:22:20;103.00;;;56.17;;
28960;SDS011;16068;42.896;20.868;2023-01-08T16:25:06;115.15;;;57.13;;
28960;SDS011;16068;42.896;20.868;2023-01-08T16:27:53;110.68;;;48.63;;
28960;SDS011;16068;42.896;20.868;2023-01-08T16:30:39;94.72;;;46.28;;
28960;SDS011;16068;42.896;20.868;2023-01-08T16:33:27;84.30;;;44.10;;
28960;SDS011;16068;42.896;20.868;2023-01-08T16:36:13;94.70;;;48.60;;
28960;SDS011;16068;42.896;20.868;2023-01-08T16:38:59;100.18;;;49.28;;
28960;SDS011;16068;42.896;20.868;2023-01-08T16:41:47;105.65;;;52.60;;
28960;SDS011;16068;42.896;20.868;2023-01-08T16:44:34;107.25;;;53.75;;
28960;SDS011;16068;42.896;20.868;2023-01-08T16:47:20;128.63;;;60.65;;
28960;SDS011;16068;42.896;20.868;2023-01-08T16:50:07;130.70;;;61.67;;
28960;SDS011;16068;42.896;20.868;2023-01-08T16:52:54;137.38;;;66.60;;
28960;SDS011;16068;42.896;20.868;2023-01-08T16:55:40;145.85;;;69.90;;
28960;SDS011;16068;42.896;20.868;2023-01-08T16:58:26;138.82;;;67.47;;
28960;SDS011;16068;42.896;20.868;2023-01-08T17:01:13;148.70;;;72.88;;
28960;SDS011;16068;42.896;20.868;2023-01-08T17:04:00;162.02;;;74.88;;
28960;SDS011;16068;42.896;20.868;2023-01-08T17:06:46;150.80;;;75.43;;
28960;SDS011;16068;42.896;20.868;2023-01-08T17:09:32;135.38;;;70.55;;
28960;SDS011;16068;42.896;20.868;2023-01-08T17:12:18;144.43;;;74.13;;
28960;SDS011;16068;42.896;20.868;2023-01-08T17:15:06;166.15;;;79.60;;
28960;SDS011;16068;42.896;20.868;2023-01-08T17:17:52;178.35;;;82.40;;
28960;SDS011;16068;42.896;20.868;2023-01-08T17:20:39;182.55;;;83.82;;
28960;SDS011;16068;42.896;20.868;2023-01-08T17:23:25;147.50;;;74.70;;
28960;SDS011;16068;42.896;20.868;2023-01-08T17:26:15;149.32;;;75.65;;
28960;SDS011;16068;42.896;20.868;2023-01-08T17:29:04;131.82;;;69.75;;
28960;SDS011;16068;42.896;20.868;2023-01-08T17:31:49;134.48;;;68.03;;
28960;SDS011;16068;42.896;20.868;2023-01-08T17:34:35;142.75;;;67.97;;
28960;SDS011;16068;42.896;20.868;2023-01-08T17:37:21;387.52;;;206.52;;
28960;SDS011;16068;42.896;20.868;2023-01-08T17:40:07;189.10;;;89.50;;
28960;SDS011;16068;42.896;20.868;2023-01-08T17:42:54;223.70;;;106.80;;
28960;SDS011;16068;42.896;20.868;2023-01-08T17:45:40;182.40;;;83.22;;
28960;SDS011;16068;42.896;20.868;2023-01-08T17:48:25;172.88;;;82.45;;
28960;SDS011;16068;42.896;20.868;2023-01-08T17:51:11;174.38;;;84.53;;
28960;SDS011;16068;42.896;20.868;2023-01-08T17:53:59;174.88;;;82.55;;
28960;SDS011;16068;42.896;20.868;2023-01-08T17:56:45;182.13;;;86.70;;
28960;SDS011;16068;42.896;20.868;2023-01-08T17:59:33;172.13;;;84.68;;
28960;SDS011;16068;42.896;20.868;2023-01-08T18:02:19;155.40;;;79.50;;
28960;SDS011;16068;42.896;20.868;2023-01-08T18:05:05;170.60;;;82.10;;